createdAt,value
2019-02-25T00:01:34.066Z,55.72
2019-02-25T00:04:00.872Z,55.70
2019-02-25T00:06:27.599Z,55.55
2019-02-25T00:08:54.344Z,55.51
2019-02-25T00:11:21.125Z,55.37
2019-02-25T00:13:47.848Z,55.50
2019-02-25T00:16:14.644Z,55.58
2019-02-25T00:18:41.369Z,55.67
2019-02-25T00:21:08.099Z,55.29
2019-02-25T00:23:34.894Z,55.48
2019-02-25T00:26:01.628Z,55.71
2019-02-25T00:28:28.346Z,55.26
2019-02-25T00:30:55.204Z,55.75
2019-02-25T00:33:21.921Z,55.90
2019-02-25T00:35:48.639Z,56.06
2019-02-25T00:38:15.454Z,56.02
2019-02-25T00:40:42.189Z,55.95
2019-02-25T00:43:08.921Z,55.78
2019-02-25T00:45:35.782Z,55.79
2019-02-25T00:48:02.831Z,55.99
2019-02-25T00:50:29.708Z,55.95
2019-02-25T00:52:56.419Z,55.69
2019-02-25T00:55:23.138Z,55.85
2019-02-25T00:57:49.933Z,56.01
2019-02-25T01:00:20.852Z,56.10
2019-02-25T01:02:47.865Z,55.80
2019-02-25T01:05:15.429Z,55.96
2019-02-25T01:07:42.228Z,55.88
2019-02-25T01:10:13.945Z,55.68
2019-02-25T01:12:44.488Z,56.04
2019-02-25T01:15:11.711Z,56.05
2019-02-25T01:17:38.502Z,55.92
2019-02-25T01:20:10.996Z,55.93
2019-02-25T01:22:37.712Z,56.20
2019-02-25T01:25:13.945Z,56.19
2019-02-25T01:27:40.649Z,56.30
2019-02-25T01:30:11.859Z,56.21
2019-02-25T01:32:38.602Z,56.45
2019-02-25T01:35:09.250Z,56.60
2019-02-25T01:37:35.990Z,56.46
2019-02-25T01:40:06.741Z,56.38
2019-02-25T01:42:33.526Z,56.51
2019-02-25T01:45:00.283Z,56.32
2019-02-25T01:47:27.002Z,56.23
2019-02-25T01:49:53.770Z,56.25
2019-02-25T01:52:20.501Z,56.26
2019-02-25T01:54:47.304Z,56.20
2019-02-25T01:57:14.007Z,55.94
2019-02-25T01:59:40.720Z,56.04
2019-02-25T02:02:07.519Z,56.26
2019-02-25T02:04:34.247Z,56.35
2019-02-25T02:07:00.986Z,56.19
2019-02-25T02:09:27.774Z,56.06
2019-02-25T02:11:54.507Z,56.36
2019-02-25T02:14:21.219Z,56.33
2019-02-25T02:16:48.032Z,56.37
2019-02-25T02:19:14.755Z,56.45
2019-02-25T02:21:41.493Z,56.29
2019-02-25T02:24:08.276Z,56.24
2019-02-25T02:26:34.985Z,56.18
2019-02-25T02:29:02.023Z,56.03
2019-02-25T02:31:28.811Z,56.08
2019-02-25T02:33:55.595Z,56.43
2019-02-25T02:36:22.307Z,56.23
2019-02-25T02:38:49.100Z,56.25
2019-02-25T02:41:15.816Z,56.39
2019-02-25T02:43:42.580Z,56.55
2019-02-25T02:46:26.934Z,56.52
2019-02-25T02:48:58.831Z,56.65
2019-02-25T02:51:25.540Z,56.77
2019-02-25T02:53:52.293Z,56.67
2019-02-25T02:56:19.069Z,56.68
2019-02-25T02:58:45.811Z,56.85
2019-02-25T03:01:12.604Z,56.93
2019-02-25T03:03:39.339Z,56.96
2019-02-25T03:06:06.058Z,57.09
2019-02-25T03:08:32.868Z,57.06
2019-02-25T03:10:59.589Z,57.09
2019-02-25T03:13:26.325Z,57.07
2019-02-25T03:15:53.116Z,57.09
2019-02-25T03:18:19.821Z,56.93
2019-02-25T03:20:46.565Z,56.80
2019-02-25T03:23:13.376Z,56.91
2019-02-25T03:25:40.113Z,57.02
2019-02-25T03:28:06.827Z,57.01
2019-02-25T03:30:33.618Z,57.19
2019-02-25T03:33:00.493Z,57.23
2019-02-25T03:35:27.254Z,57.19
2019-02-25T03:37:54.026Z,57.18
2019-02-25T03:40:22.379Z,57.26
2019-02-25T03:42:49.112Z,57.05
2019-02-25T03:45:17.992Z,57.17
2019-02-25T03:47:44.811Z,56.98
2019-02-25T03:50:11.813Z,57.13
2019-02-25T03:52:38.557Z,57.35
2019-02-25T03:55:13.672Z,57.53
2019-02-25T03:57:40.610Z,57.59
2019-02-25T04:00:12.463Z,57.64
2019-02-25T04:02:39.256Z,57.32
2019-02-25T04:05:06.411Z,57.65
2019-02-25T04:07:33.118Z,57.86
2019-02-25T04:09:59.882Z,57.58
2019-02-25T04:12:26.616Z,57.41
2019-02-25T04:14:53.442Z,57.70
2019-02-25T04:17:20.221Z,57.23
2019-02-25T04:19:46.915Z,57.43
2019-02-25T04:22:13.696Z,57.57
2019-02-25T04:24:40.411Z,57.83
2019-02-25T04:27:07.205Z,57.82
2019-02-25T04:29:33.928Z,57.84
2019-02-25T04:32:00.652Z,57.68
2019-02-25T04:34:27.453Z,57.81
2019-02-25T04:36:54.238Z,57.84
2019-02-25T04:39:20.977Z,58.03
2019-02-25T04:41:47.764Z,58.18
2019-02-25T04:44:14.484Z,58.38
2019-02-25T04:46:41.292Z,58.61
2019-02-25T04:49:08.019Z,58.39
2019-02-25T04:51:34.740Z,58.05
2019-02-25T04:54:01.512Z,58.31
2019-02-25T04:56:28.224Z,58.36
2019-02-25T04:58:55.027Z,58.39
2019-02-25T05:01:21.761Z,58.41
2019-02-25T05:03:48.486Z,58.10
2019-02-25T05:06:15.273Z,57.95
2019-02-25T05:08:41.996Z,57.98
2019-02-25T05:11:08.812Z,58.02
2019-02-25T05:13:35.547Z,57.85
2019-02-25T05:16:02.265Z,57.81
2019-02-25T05:18:29.052Z,58.01
2019-02-25T05:20:55.791Z,58.04
2019-02-25T05:23:22.518Z,58.10
2019-02-25T05:25:49.323Z,58.11
2019-02-25T05:28:16.060Z,58.25
2019-02-25T05:30:42.775Z,58.25
2019-02-25T05:33:09.580Z,58.08
2019-02-25T05:35:36.290Z,57.79
2019-02-25T05:38:03.046Z,57.86
2019-02-25T05:40:29.796Z,57.75
2019-02-25T05:42:56.519Z,57.58
2019-02-25T05:45:23.311Z,57.71
2019-02-25T05:47:50.068Z,57.89
2019-02-25T05:50:20.413Z,57.42
2019-02-25T05:52:47.223Z,57.60
2019-02-25T05:55:16.708Z,57.98
2019-02-25T05:57:43.546Z,58.11
2019-02-25T06:00:18.697Z,57.94
2019-02-25T06:02:45.443Z,57.92
2019-02-25T06:05:12.239Z,57.92
2019-02-25T06:07:38.964Z,58.12
2019-02-25T06:10:08.725Z,58.35
2019-02-25T06:12:35.486Z,58.43
2019-02-25T06:15:03.516Z,58.56
2019-02-25T06:17:30.297Z,58.52
2019-02-25T06:19:57.013Z,58.64
2019-02-25T06:22:43.764Z,58.67
2019-02-25T06:25:12.699Z,58.56
2019-02-25T06:27:39.422Z,58.49
2019-02-25T06:30:21.699Z,58.48
2019-02-25T06:32:48.480Z,58.57
2019-02-25T06:35:15.375Z,58.79
2019-02-25T06:37:42.887Z,59.24
2019-02-25T06:40:15.325Z,58.72
2019-02-25T06:42:41.934Z,58.84
2019-02-25T06:45:12.199Z,58.91
2019-02-25T06:47:38.879Z,58.55
2019-02-25T06:50:08.658Z,58.31
2019-02-25T06:52:35.437Z,58.22
2019-02-25T06:55:03.930Z,58.17
2019-02-25T06:57:30.677Z,58.43
2019-02-25T06:59:57.408Z,58.78
2019-02-25T07:02:24.314Z,58.96
2019-02-25T07:04:51.036Z,58.95
2019-02-25T07:07:17.771Z,59.10
2019-02-25T07:09:44.568Z,59.12
2019-02-25T07:12:11.291Z,59.08
2019-02-25T07:14:38.032Z,58.67
2019-02-25T07:17:04.768Z,58.48
2019-02-25T07:19:31.495Z,58.58
2019-02-25T07:21:58.282Z,58.73
2019-02-25T07:24:25.021Z,57.85
2019-02-25T07:26:51.745Z,57.69
2019-02-25T07:29:18.525Z,57.83
2019-02-25T07:31:45.263Z,58.00
2019-02-25T07:34:12.005Z,58.27
2019-02-25T07:36:38.822Z,58.43
2019-02-25T07:39:06.057Z,57.76
2019-02-25T07:41:32.833Z,57.93
2019-02-25T07:43:59.626Z,57.78
2019-02-25T07:46:26.344Z,57.77
2019-02-25T07:48:53.074Z,57.74
2019-02-25T07:51:19.845Z,57.89
2019-02-25T07:53:46.612Z,57.91
2019-02-25T07:56:13.343Z,57.53
2019-02-25T07:58:40.148Z,57.24
2019-02-25T08:01:06.858Z,57.10
2019-02-25T08:03:33.581Z,57.27
2019-02-25T08:06:00.336Z,57.13
2019-02-25T08:08:27.077Z,56.61
2019-02-25T08:10:53.799Z,56.41
2019-02-25T08:13:20.566Z,56.85
2019-02-25T08:15:47.277Z,57.06
2019-02-25T08:18:14.066Z,57.48
2019-02-25T08:20:40.777Z,57.24
2019-02-25T08:23:07.491Z,56.66
2019-02-25T08:25:34.257Z,56.63
2019-02-25T08:28:00.994Z,56.73
2019-02-25T08:30:27.725Z,56.66
2019-02-25T08:32:54.490Z,56.63
2019-02-25T08:35:49.439Z,56.57
2019-02-25T08:38:16.235Z,56.51
2019-02-25T08:40:47.011Z,56.45
2019-02-25T08:43:16.510Z,56.19
2019-02-25T08:45:43.316Z,55.65
2019-02-25T08:48:10.058Z,55.33
2019-02-25T08:50:36.774Z,55.08
2019-02-25T08:53:03.545Z,55.08
2019-02-25T08:55:30.265Z,55.36
2019-02-25T08:57:57.058Z,55.39
2019-02-25T09:00:23.788Z,55.34
2019-02-25T09:02:50.514Z,55.11
2019-02-25T09:05:17.299Z,54.81
2019-02-25T09:07:44.030Z,55.08
2019-02-25T09:10:13.636Z,55.17
2019-02-25T09:12:40.470Z,54.74
2019-02-25T09:15:11.812Z,54.66
2019-02-25T09:17:43.735Z,54.67
2019-02-25T09:20:12.486Z,54.79
2019-02-25T09:22:39.229Z,54.82
2019-02-25T09:25:12.330Z,55.27
2019-02-25T09:27:39.160Z,55.08
2019-02-25T09:30:16.114Z,54.80
2019-02-25T09:32:43.144Z,54.86
2019-02-25T09:35:09.999Z,55.06
2019-02-25T09:37:37.354Z,54.46
2019-02-25T09:40:11.234Z,53.88
2019-02-25T09:42:38.012Z,53.90
2019-02-25T09:45:12.881Z,53.41
2019-02-25T09:47:39.616Z,52.91
2019-02-25T09:50:16.329Z,53.28
2019-02-25T09:52:43.050Z,53.04
2019-02-25T09:55:12.179Z,52.63
2019-02-25T09:57:38.955Z,51.71
2019-02-25T10:00:19.269Z,51.75
2019-02-25T10:02:46.042Z,51.84
2019-02-25T10:05:12.966Z,51.55
2019-02-25T10:07:39.703Z,51.61
2019-02-25T10:10:17.121Z,51.30
2019-02-25T10:12:43.863Z,50.37
2019-02-25T10:15:15.796Z,50.19
2019-02-25T10:17:42.603Z,49.95
2019-02-25T10:20:09.411Z,49.41
2019-02-25T10:22:36.135Z,48.94
2019-02-25T10:25:08.845Z,50.56
2019-02-25T10:27:35.581Z,50.42
2019-02-25T10:30:09.140Z,50.72
2019-02-25T10:32:35.854Z,50.81
2019-02-25T10:35:03.483Z,50.79
2019-02-25T10:37:30.273Z,50.14
2019-02-25T10:39:56.999Z,49.38
2019-02-25T10:42:23.794Z,49.96
2019-02-25T10:44:50.604Z,48.24
2019-02-25T10:47:19.496Z,47.39
2019-02-25T10:49:46.275Z,46.30
2019-02-25T10:52:14.984Z,46.26
2019-02-25T10:54:41.590Z,45.85
2019-02-25T10:57:08.386Z,45.72
2019-02-25T10:59:36.900Z,45.90
2019-02-25T11:02:03.765Z,45.17
2019-02-25T11:04:30.535Z,44.85
2019-02-25T11:06:58.548Z,45.01
2019-02-25T11:09:25.885Z,44.27
2019-02-25T11:11:53.092Z,43.85
2019-02-25T11:14:21.247Z,43.74
2019-02-25T11:16:49.703Z,43.36
2019-02-25T11:19:16.556Z,44.10
2019-02-25T11:21:44.303Z,44.44
2019-02-25T11:24:11.249Z,43.33
2019-02-25T11:26:37.985Z,43.36
2019-02-25T11:29:05.613Z,43.40
2019-02-25T11:31:33.314Z,43.45
2019-02-25T11:34:00.709Z,43.50
2019-02-25T11:36:28.633Z,43.06
2019-02-25T11:38:55.338Z,42.11
2019-02-25T11:41:22.116Z,39.98
2019-02-25T11:43:50.992Z,39.42
2019-02-25T11:46:17.433Z,37.87
2019-02-25T11:48:44.248Z,35.82
2019-02-25T11:51:10.956Z,35.06
2019-02-25T11:53:37.675Z,32.99
2019-02-25T11:56:04.437Z,32.01
2019-02-25T11:58:31.158Z,31.10
2019-02-25T12:00:57.952Z,29.47
2019-02-25T12:03:24.682Z,30.37
2019-02-25T12:05:52.618Z,30.19
2019-02-25T12:08:19.517Z,28.50
2019-02-25T12:10:46.240Z,28.49
2019-02-25T12:13:12.964Z,28.08
2019-02-25T12:15:39.706Z,28.05
2019-02-25T12:18:06.424Z,26.31
2019-02-25T12:20:33.216Z,26.84
2019-02-25T12:22:59.972Z,27.36
2019-02-25T12:25:26.706Z,28.02
2019-02-25T12:27:53.492Z,27.54
2019-02-25T12:30:23.230Z,26.99
2019-02-25T12:32:50.041Z,26.08
2019-02-25T12:35:17.036Z,25.48
2019-02-25T12:37:43.738Z,27.03
2019-02-25T12:40:13.005Z,26.08
2019-02-25T12:42:39.794Z,25.77
2019-02-25T12:45:09.484Z,26.02
2019-02-25T12:47:36.206Z,24.98
2019-02-25T12:50:07.956Z,25.12
2019-02-25T12:52:34.596Z,26.47
2019-02-25T12:55:01.382Z,26.79
2019-02-25T12:57:28.106Z,26.19
2019-02-25T12:59:54.876Z,26.12
2019-02-25T13:02:21.642Z,26.26
2019-02-25T13:04:48.361Z,25.81
2019-02-25T13:07:15.109Z,26.28
2019-02-25T13:09:41.897Z,26.58
2019-02-25T13:12:08.619Z,26.74
2019-02-25T13:14:35.381Z,26.90
2019-02-25T13:17:02.163Z,26.46
2019-02-25T13:19:28.889Z,26.53
2019-02-25T13:21:55.625Z,26.13
2019-02-25T13:24:22.434Z,26.20
2019-02-25T13:26:49.162Z,27.64
2019-02-25T13:29:15.895Z,28.07
2019-02-25T13:31:42.672Z,28.51
2019-02-25T13:34:09.400Z,27.97
2019-02-25T13:36:36.158Z,28.49
2019-02-25T13:39:05.493Z,28.35
2019-02-25T13:41:32.241Z,28.29
2019-02-25T13:43:59.330Z,27.89
2019-02-25T13:46:26.081Z,28.05
2019-02-25T13:48:52.818Z,27.34
2019-02-25T13:51:19.611Z,28.41
2019-02-25T13:53:46.335Z,29.29
2019-02-25T13:56:13.072Z,29.56
2019-02-25T13:58:39.849Z,29.79
2019-02-25T14:01:06.569Z,30.30
2019-02-25T14:03:33.298Z,29.42
2019-02-25T14:06:00.206Z,28.49
2019-02-25T14:08:27.230Z,28.48
2019-02-25T14:10:53.975Z,28.73
2019-02-25T14:13:20.774Z,29.63
2019-02-25T14:15:47.594Z,30.09
2019-02-25T14:18:14.533Z,30.36
2019-02-25T14:20:41.912Z,29.49
2019-02-25T14:23:08.745Z,29.44
2019-02-25T14:25:35.779Z,30.27
2019-02-25T14:28:07.870Z,30.20
2019-02-25T14:30:33.882Z,30.33
2019-02-25T14:33:00.689Z,29.93
2019-02-25T14:35:31.540Z,29.74
2019-02-25T14:38:07.259Z,30.18
2019-02-25T14:40:32.546Z,30.85
2019-02-25T14:42:59.944Z,30.10
2019-02-25T14:45:28.849Z,30.91
2019-02-25T14:47:59.617Z,31.39
2019-02-25T14:50:25.311Z,31.16
2019-02-25T14:52:52.265Z,31.55
2019-02-25T14:55:19.166Z,31.71
2019-02-25T14:57:45.905Z,32.21
2019-02-25T15:00:26.158Z,31.61
2019-02-25T15:02:53.419Z,32.55
2019-02-25T15:05:22.455Z,33.43
2019-02-25T15:07:50.822Z,34.62
2019-02-25T15:10:17.891Z,35.43
2019-02-25T15:12:44.939Z,36.30
2019-02-25T15:15:22.379Z,36.53
2019-02-25T15:17:50.585Z,36.86
2019-02-25T15:20:20.841Z,37.76
2019-02-25T15:22:47.921Z,38.38
2019-02-25T15:25:16.368Z,39.08
2019-02-25T15:27:43.171Z,39.67
2019-02-25T15:30:22.711Z,39.56
2019-02-25T15:32:55.800Z,39.99
2019-02-25T15:35:18.266Z,40.72
2019-02-25T15:37:46.713Z,41.43
2019-02-25T15:40:18.000Z,41.30
2019-02-25T15:42:44.114Z,41.95
2019-02-25T15:45:16.991Z,42.35
2019-02-25T15:47:44.821Z,42.93
2019-02-25T15:50:15.815Z,43.65
2019-02-25T15:52:42.809Z,43.90
2019-02-25T15:55:15.019Z,43.95
2019-02-25T15:57:41.716Z,44.31
2019-02-25T16:00:19.070Z,44.48
2019-02-25T16:02:50.840Z,44.34
2019-02-25T16:05:17.643Z,44.58
2019-02-25T16:07:44.369Z,45.10
2019-02-25T16:10:11.984Z,45.29
2019-02-25T16:12:40.289Z,45.18
2019-02-25T16:15:15.743Z,44.78
2019-02-25T16:17:46.422Z,45.25
2019-02-25T16:20:17.563Z,45.84
2019-02-25T16:22:44.668Z,46.13
2019-02-25T16:25:23.065Z,46.39
2019-02-25T16:27:52.135Z,46.40
2019-02-25T16:30:21.327Z,46.45
2019-02-25T16:32:48.411Z,46.59
2019-02-25T16:35:15.761Z,46.84
2019-02-25T16:37:42.807Z,46.95
2019-02-25T16:40:17.407Z,47.00
2019-02-25T16:42:44.343Z,46.94
2019-02-25T16:45:22.412Z,47.41
2019-02-25T16:47:49.140Z,47.74
2019-02-25T16:50:16.957Z,47.45
2019-02-25T16:52:47.336Z,47.35
2019-02-25T16:55:22.656Z,47.79
2019-02-25T16:57:50.165Z,47.97
2019-02-25T17:00:29.625Z,48.41
2019-02-25T17:02:54.535Z,48.63
2019-02-25T17:05:21.366Z,48.68
2019-02-25T17:07:49.007Z,48.72
2019-02-25T17:10:19.404Z,48.74
2019-02-25T17:12:47.924Z,48.82
2019-02-25T17:15:17.304Z,48.78
2019-02-25T17:17:44.100Z,48.54
2019-02-25T17:20:13.723Z,49.04
2019-02-25T17:22:40.440Z,49.61
2019-02-25T17:25:12.094Z,49.37
2019-02-25T17:27:39.152Z,49.43
2019-02-25T17:30:17.446Z,49.55
2019-02-25T17:32:46.628Z,49.67
2019-02-25T17:35:16.777Z,49.50
2019-02-25T17:37:43.630Z,49.50
2019-02-25T17:40:13.763Z,49.58
2019-02-25T17:42:40.560Z,49.83
2019-02-25T17:45:25.046Z,49.52
2019-02-25T17:47:58.210Z,49.37
2019-02-25T17:50:21.326Z,49.83
2019-02-25T17:52:48.167Z,50.12
2019-02-25T17:55:29.290Z,50.25
2019-02-25T17:57:56.861Z,50.42
2019-02-25T18:00:26.679Z,50.57
2019-02-25T18:02:54.997Z,50.53
2019-02-25T18:05:22.816Z,50.60
2019-02-25T18:07:49.959Z,50.48
2019-02-25T18:10:17.241Z,50.14
2019-02-25T18:12:44.479Z,50.31
2019-02-25T18:15:19.578Z,50.46
2019-02-25T18:17:48.883Z,49.83
2019-02-25T18:20:15.960Z,49.62
2019-02-25T18:22:43.134Z,49.88
2019-02-25T18:25:12.787Z,50.25
2019-02-25T18:27:41.387Z,50.43
2019-02-25T18:30:13.107Z,50.34
2019-02-25T18:32:40.427Z,50.56
2019-02-25T18:35:08.356Z,50.76
2019-02-25T18:37:35.892Z,50.68
2019-02-25T18:40:11.674Z,50.92
2019-02-25T18:42:40.854Z,50.78
2019-02-25T18:45:16.049Z,51.23
2019-02-25T18:47:43.659Z,51.59
2019-02-25T18:50:21.392Z,51.32
2019-02-25T18:52:50.142Z,50.89
2019-02-25T18:55:20.056Z,51.22
2019-02-25T18:57:50.147Z,51.59
2019-02-25T19:00:28.254Z,50.52
2019-02-25T19:02:56.179Z,50.77
2019-02-25T19:05:25.405Z,51.25
2019-02-25T19:07:55.379Z,51.24
2019-02-25T19:10:24.585Z,50.89
2019-02-25T19:12:56.328Z,50.84
2019-02-25T19:15:23.752Z,50.87
2019-02-25T19:17:52.160Z,51.25
2019-02-25T19:20:19.798Z,51.53
2019-02-25T19:22:46.980Z,50.96
2019-02-25T19:25:18.127Z,50.64
2019-02-25T19:27:47.969Z,51.09
2019-02-25T19:30:19.695Z,51.41
2019-02-25T19:32:46.906Z,51.57
2019-02-25T19:35:15.019Z,51.62
2019-02-25T19:37:44.317Z,51.30
2019-02-25T19:40:20.054Z,51.18
2019-02-25T19:42:51.339Z,51.46
2019-02-25T19:45:17.703Z,51.37
2019-02-25T19:47:45.592Z,51.28
2019-02-25T19:50:20.905Z,51.54
2019-02-25T19:52:48.118Z,51.71
2019-02-25T19:55:17.744Z,51.45
2019-02-25T19:57:44.395Z,51.77
2019-02-25T20:00:22.305Z,51.97
2019-02-25T20:02:49.179Z,51.79
2019-02-25T20:05:17.356Z,52.05
2019-02-25T20:07:45.280Z,52.55
2019-02-25T20:10:13.702Z,52.31
2019-02-25T20:12:40.942Z,51.89
2019-02-25T20:15:16.372Z,51.81
2019-02-25T20:17:46.241Z,51.88
2019-02-25T20:20:15.009Z,51.71
2019-02-25T20:22:41.819Z,51.81
2019-02-25T20:25:16.290Z,52.22
2019-02-25T20:27:42.875Z,52.12
2019-02-25T20:30:16.100Z,51.73
2019-02-25T20:32:44.739Z,51.58
2019-02-25T20:35:15.720Z,52.23
2019-02-25T20:37:43.102Z,52.17
2019-02-25T20:40:11.367Z,52.25
2019-02-25T20:42:38.185Z,52.58
2019-02-25T20:45:25.222Z,52.92
2019-02-25T20:47:54.465Z,53.04
2019-02-25T20:50:22.346Z,52.97
2019-02-25T20:52:49.173Z,52.89
2019-02-25T20:55:15.896Z,53.22
2019-02-25T20:57:43.731Z,53.24
2019-02-25T21:00:20.696Z,53.40
2019-02-25T21:02:47.417Z,53.06
2019-02-25T21:05:16.718Z,52.49
2019-02-25T21:07:42.995Z,52.64
2019-02-25T21:10:14.030Z,53.09
2019-02-25T21:12:40.824Z,52.88
2019-02-25T21:15:13.506Z,52.91
2019-02-25T21:17:40.317Z,52.96
2019-02-25T21:20:14.194Z,52.91
2019-02-25T21:22:41.241Z,53.10
2019-02-25T21:25:10.589Z,53.28
2019-02-25T21:27:39.073Z,53.29
2019-02-25T21:30:16.441Z,53.56
2019-02-25T21:32:45.663Z,53.34
2019-02-25T21:35:14.284Z,53.26
2019-02-25T21:37:45.437Z,52.99
2019-02-25T21:40:22.295Z,52.91
2019-02-25T21:42:51.376Z,53.17
2019-02-25T21:45:20.209Z,53.78
2019-02-25T21:47:47.603Z,53.93
2019-02-25T21:50:20.227Z,53.81
2019-02-25T21:52:47.945Z,53.58
2019-02-25T21:55:18.102Z,53.75
2019-02-25T21:57:45.709Z,53.58
2019-02-25T22:00:20.657Z,53.58
2019-02-25T22:02:50.925Z,53.68
2019-02-25T22:05:18.957Z,53.41
2019-02-25T22:07:47.554Z,53.10
2019-02-25T22:10:18.288Z,53.00
2019-02-25T22:12:45.023Z,53.40
2019-02-25T22:15:18.035Z,53.27
2019-02-25T22:17:46.205Z,53.55
2019-02-25T22:20:16.466Z,53.64
2019-02-25T22:22:43.248Z,53.48
2019-02-25T22:25:18.109Z,53.32
2019-02-25T22:27:45.584Z,53.29
2019-02-25T22:30:17.295Z,53.51
2019-02-25T22:32:44.002Z,53.88
2019-02-25T22:35:14.737Z,53.62
2019-02-25T22:37:44.165Z,53.96
2019-02-25T22:40:15.050Z,54.07
2019-02-25T22:42:42.002Z,54.11
2019-02-25T22:45:20.540Z,53.99
2019-02-25T22:47:47.323Z,54.06
2019-02-25T22:50:15.311Z,54.13
2019-02-25T22:52:42.208Z,54.11
2019-02-25T22:55:12.240Z,54.30
2019-02-25T22:57:40.850Z,54.37
2019-02-25T23:00:34.985Z,54.29
2019-02-25T23:03:01.716Z,54.29
2019-02-25T23:05:29.528Z,54.32
2019-02-25T23:07:56.276Z,53.91
2019-02-25T23:10:24.208Z,53.90
2019-02-25T23:12:51.447Z,53.92
2019-02-25T23:15:19.981Z,54.20
2019-02-25T23:17:46.715Z,54.32
2019-02-25T23:20:13.437Z,53.70
2019-02-25T23:22:40.211Z,53.25
2019-02-25T23:25:10.560Z,53.58
2019-02-25T23:27:38.944Z,53.98
2019-02-25T23:30:13.442Z,54.05
2019-02-25T23:32:40.188Z,54.09
2019-02-25T23:35:09.449Z,54.51
2019-02-25T23:37:36.000Z,54.38
2019-02-25T23:40:07.755Z,54.40
2019-02-25T23:42:37.380Z,54.50
2019-02-25T23:45:12.996Z,54.46
2019-02-25T23:47:41.143Z,54.65
2019-02-25T23:50:13.177Z,54.67
2019-02-25T23:52:39.270Z,54.56
2019-02-25T23:55:14.299Z,54.63
2019-02-25T23:57:39.473Z,54.61
